Time;durP1;ratioP1;P1;durP2;ratioP2;P2;SDS_P1;SDS_P2;PMS_P1;PMS_P2;Temp;Humidity;BMP_temperature;BMP_pressure;BME280_temperature;BME280_humidity;BME280_pressure;Samples;Min_cycle;Max_cycle;Signal;HPM_P1;HPM_P2
2023/01/06 00:02:24;;;;;;;2.93;2.17;;;7.20;99.90;;;;;;5032439;28;20669;-69
2023/01/06 00:04:52;;;;;;;3.57;2.30;;;7.20;99.90;;;;;;5032450;28;20573;-69
2023/01/06 00:07:19;;;;;;;2.93;2.27;;;7.20;99.90;;;;;;5032360;28;20206;-69
2023/01/06 00:09:46;;;;;;;3.57;2.37;;;7.10;99.90;;;;;;5032217;28;20562;-72
2023/01/06 00:12:12;;;;;;;3.13;2.27;;;7.10;99.90;;;;;;5032205;28;20221;-70
2023/01/06 00:14:41;;;;;;;5.13;2.33;;;7.20;99.90;;;;;;5031876;28;20646;-71
2023/01/06 00:17:08;;;;;;;2.80;2.30;;;7.10;99.90;;;;;;5032293;28;20202;-69
2023/01/06 00:19:35;;;;;;;3.03;2.23;;;7.10;99.90;;;;;;5031824;28;20218;-70
2023/01/06 00:22:04;;;;;;;3.23;2.20;;;7.10;99.90;;;;;;5032006;28;20237;-69
2023/01/06 00:24:31;;;;;;;3.20;2.10;;;7.10;99.90;;;;;;5031784;28;20241;-69
2023/01/06 00:26:59;;;;;;;2.50;2.07;;;7.00;99.90;;;;;;5032310;28;20209;-70
2023/01/06 00:29:26;;;;;;;2.20;2.00;;;7.00;99.90;;;;;;5031881;28;20233;-69
2023/01/06 00:31:53;;;;;;;3.03;2.10;;;7.00;99.90;;;;;;5032035;28;20545;-71
2023/01/06 00:34:20;;;;;;;3.30;2.30;;;7.00;99.90;;;;;;5031793;28;20201;-69
2023/01/06 00:36:46;;;;;;;2.60;2.10;;;7.00;99.90;;;;;;5031444;28;20202;-70
2023/01/06 00:39:15;;;;;;;2.43;2.00;;;6.90;99.90;;;;;;5031822;28;20233;-69
2023/01/06 00:44:26;;;;;;;2.57;2.17;;;6.90;99.90;;;;;;5031784;28;20237;-67
2023/01/06 00:46:53;;;;;;;3.23;2.20;;;6.90;99.90;;;;;;5031459;28;20248;-69
2023/01/06 00:49:20;;;;;;;2.27;2.00;;;6.80;99.90;;;;;;5031656;28;20190;-66
2023/01/06 00:51:46;;;;;;;2.47;2.20;;;6.80;99.90;;;;;;5031780;28;20221;-67
2023/01/06 00:54:15;;;;;;;2.47;2.00;;;6.80;99.90;;;;;;5031637;28;20206;-70
2023/01/06 00:56:44;;;;;;;3.37;2.40;;;6.80;99.90;;;;;;5031650;28;20572;-70
2023/01/06 00:59:12;;;;;;;4.13;2.30;;;6.80;99.90;;;;;;5031831;28;20312;-72
2023/01/06 01:01:40;;;;;;;3.03;2.13;;;6.80;99.90;;;;;;5031527;28;20204;-72
2023/01/06 01:04:07;;;;;;;2.87;2.00;;;6.70;99.90;;;;;;5031654;28;20210;-72
2023/01/06 01:06:35;;;;;;;3.20;2.30;;;6.80;99.90;;;;;;5031685;28;20209;-72
2023/01/06 01:09:02;;;;;;;3.80;2.03;;;6.70;99.90;;;;;;5031740;28;20224;-72
2023/01/06 01:14:16;;;;;;;2.53;2.00;;;6.70;99.90;;;;;;5027954;28;20205;-70
2023/01/06 01:16:43;;;;;;;3.20;2.20;;;6.70;99.90;;;;;;5031901;28;20206;-70
2023/01/06 01:19:10;;;;;;;3.23;2.23;;;6.70;99.90;;;;;;5031767;28;20217;-71
2023/01/06 01:21:37;;;;;;;2.43;2.10;;;6.70;99.90;;;;;;5031600;28;20230;-71
2023/01/06 01:24:04;;;;;;;3.30;1.93;;;6.70;99.90;;;;;;5031778;28;20566;-72
2023/01/06 01:26:33;;;;;;;2.53;2.00;;;6.60;99.90;;;;;;5031331;28;20222;-72
2023/01/06 01:29:00;;;;;;;2.20;1.90;;;6.60;99.90;;;;;;5031566;28;20209;-71
2023/01/06 01:31:27;;;;;;;2.00;1.80;;;6.60;99.90;;;;;;5030920;28;20581;-72
2023/01/06 01:33:54;;;;;;;2.30;1.90;;;6.60;99.90;;;;;;5031420;28;20202;-72
2023/01/06 01:36:20;;;;;;;2.10;1.90;;;6.60;99.90;;;;;;5031318;28;20213;-72
2023/01/06 01:38:47;;;;;;;2.17;1.20;;;6.50;99.90;;;;;;5031096;28;20222;-71
2023/01/06 01:41:17;;;;;;;1.30;1.20;;;6.40;99.90;;;;;;5031475;28;20206;-71
2023/01/06 01:43:48;;;;;;;1.40;1.30;;;6.30;99.90;;;;;;5031619;28;20195;-68
2023/01/06 01:46:20;;;;;;;1.30;1.20;;;6.20;99.90;;;;;;5034707;28;20317;-69
2023/01/06 01:48:47;;;;;;;1.40;1.30;;;6.00;99.90;;;;;;5034780;28;20317;-70
2023/01/06 01:51:17;;;;;;;2.30;1.50;;;6.00;99.90;;;;;;5035328;28;20671;-69
2023/01/06 01:53:48;;;;;;;2.73;1.60;;;6.00;99.90;;;;;;5035385;28;20191;-68
2023/01/06 01:56:20;;;;;;;1.23;1.13;;;6.00;99.90;;;;;;5034896;28;20220;-68
2023/01/06 01:58:53;;;;;;;1.30;1.20;;;5.90;99.90;;;;;;5035111;28;20309;-69
2023/01/06 02:01:20;;;;;;;1.30;1.20;;;5.80;99.90;;;;;;5034972;28;20195;-69
2023/01/06 02:03:47;;;;;;;1.30;1.20;;;5.80;99.90;;;;;;5035057;28;20214;-69
2023/01/06 02:06:18;;;;;;;1.63;1.53;;;5.70;99.90;;;;;;5034808;28;20206;-70
2023/01/06 02:08:49;;;;;;;3.50;1.70;;;5.70;99.90;;;;;;5015171;28;20195;-68
2023/01/06 02:11:15;;;;;;;3.77;2.77;;;5.60;99.90;;;;;;5015201;28;20197;-68
2023/01/06 02:13:46;;;;;;;3.87;3.10;;;5.50;99.90;;;;;;5014954;28;20211;-69
2023/01/06 02:16:21;;;;;;;4.67;2.97;;;5.40;99.90;;;;;;5015124;28;20245;-69
2023/01/06 02:18:55;;;;;;;1.60;1.50;;;5.30;99.90;;;;;;5014909;28;20221;-71
2023/01/06 02:21:34;;;;;;;1.47;1.37;;;5.20;99.90;;;;;;5017345;28;20552;-69
2023/01/06 02:24:43;;;;;;;1.70;1.60;;;5.00;99.90;;;;;;5034681;28;20573;-68
2023/01/06 02:27:49;;;;;;;2.03;1.70;;;4.90;99.90;;;;;;5019116;28;20576;-69
2023/01/06 02:30:40;;;;;;;4.17;3.63;;;4.80;99.90;;;;;;4998514;28;20793;-68
2023/01/06 02:33:18;;;;;;;4.97;3.90;;;4.70;99.90;;;;;;5034209;28;20195;-70
2023/01/06 02:35:58;;;;;;;4.50;3.50;;;4.70;99.90;;;;;;5034495;28;20194;-68
2023/01/06 02:38:39;;;;;;;3.13;2.80;;;4.60;99.90;;;;;;5034076;28;20214;-69
2023/01/06 02:41:17;;;;;;;2.90;2.40;;;4.40;99.90;;;;;;5034379;28;20190;-69
2023/01/06 02:43:55;;;;;;;3.30;2.50;;;4.30;99.90;;;;;;5034602;28;20642;-68
2023/01/06 02:46:43;;;;;;;3.73;3.33;;;4.20;99.90;;;;;;5033455;28;20248;-67
2023/01/06 02:49:20;;;;;;;3.87;3.23;;;4.10;99.90;;;;;;5034220;28;20209;-69
2023/01/06 03:25:26;;;;;;;2.87;2.47;;;3.10;99.90;;;;;;5033522;28;20772;-66
2023/01/06 03:45:06;;;;;;;3.40;3.10;;;2.80;99.90;;;;;;5013017;28;20177;-66
2023/01/06 03:47:41;;;;;;;4.30;3.90;;;2.80;99.90;;;;;;5012517;28;20239;-71
2023/01/06 03:50:13;;;;;;;5.33;4.53;;;2.70;99.90;;;;;;5022446;28;20202;-71
2023/01/06 03:52:45;;;;;;;4.10;3.70;;;2.70;99.90;;;;;;5032765;28;20190;-71
2023/01/06 03:55:16;;;;;;;4.20;3.50;;;2.70;99.90;;;;;;5032620;28;20223;-71
2023/01/06 03:57:46;;;;;;;4.20;3.80;;;2.60;99.90;;;;;;5032421;28;20198;-71
2023/01/06 04:00:18;;;;;;;4.03;3.63;;;2.50;99.90;;;;;;5031858;28;20293;-71
2023/01/06 04:02:46;;;;;;;4.50;4.10;;;2.50;99.90;;;;;;5032928;28;20196;-71
2023/01/06 04:05:15;;;;;;;4.30;3.90;;;2.40;99.90;;;;;;5032216;28;20210;-71
2023/01/06 04:07:42;;;;;;;4.70;4.30;;;2.40;99.90;;;;;;5031554;28;20206;-70
2023/01/06 04:10:10;;;;;;;5.43;4.93;;;2.30;99.90;;;;;;5031202;28;20205;-72
2023/01/06 04:12:40;;;;;;;6.50;5.80;;;2.30;99.90;;;;;;5032205;28;20206;-70
2023/01/06 04:43:02;;;;;;;6.97;6.27;;;2.20;99.90;;;;;;5026931;28;20225;-72
2023/01/06 04:45:40;;;;;;;8.57;7.40;;;2.10;99.90;;;;;;5031204;28;20297;-72
2023/01/06 04:48:07;;;;;;;7.83;7.03;;;2.10;99.90;;;;;;5027735;28;20213;-71
2023/01/06 04:50:34;;;;;;;9.87;8.40;;;2.10;99.90;;;;;;5019213;28;20228;-72
2023/01/06 04:53:01;;;;;;;9.87;8.67;;;2.00;99.90;;;;;;5030931;28;20658;-72
2023/01/06 04:55:42;;;;;;;9.87;8.80;;;2.00;99.90;;;;;;5032266;28;20654;-72
2023/01/06 04:58:10;;;;;;;10.83;9.40;;;1.90;99.90;;;;;;5032286;28;20641;-72
2023/01/06 05:00:46;;;;;;;11.17;9.97;;;1.90;99.90;;;;;;5029869;28;20705;-71
2023/01/06 05:03:13;;;;;;;11.90;10.10;;;1.90;99.90;;;;;;5031762;28;20196;-72
2023/01/06 05:05:40;;;;;;;12.83;10.33;;;1.80;99.90;;;;;;5031938;28;20198;-72
2023/01/06 05:08:09;;;;;;;13.30;10.47;;;1.90;99.90;;;;;;5031872;28;20202;-72
2023/01/06 05:10:36;;;;;;;12.43;9.93;;;1.90;99.90;;;;;;5030303;28;20205;-72
2023/01/06 05:13:03;;;;;;;12.00;9.90;;;1.90;99.90;;;;;;5031423;28;20230;-72
2023/01/06 05:15:31;;;;;;;12.33;10.27;;;1.90;99.90;;;;;;5031733;28;20202;-71
2023/01/06 05:17:58;;;;;;;13.47;10.90;;;1.90;99.90;;;;;;5031661;28;20210;-72
2023/01/06 05:20:24;;;;;;;13.80;11.57;;;1.90;99.90;;;;;;5034892;28;20555;-71
2023/01/06 05:22:51;;;;;;;15.97;12.90;;;1.90;99.90;;;;;;5034439;28;20599;-72
2023/01/06 05:25:18;;;;;;;13.30;11.27;;;1.90;99.90;;;;;;5035405;28;20214;-72
2023/01/06 05:27:45;;;;;;;12.80;10.10;;;1.90;99.90;;;;;;5035523;28;20681;-72
2023/01/06 05:30:13;;;;;;;10.97;9.17;;;1.90;99.90;;;;;;5035485;28;20202;-72
2023/01/06 05:32:41;;;;;;;11.80;9.70;;;1.90;99.90;;;;;;5034602;28;20233;-70
2023/01/06 05:35:08;;;;;;;12.07;9.60;;;1.80;99.90;;;;;;5034903;28;20216;-71
2023/01/06 05:37:35;;;;;;;11.37;9.60;;;1.80;99.90;;;;;;5035246;28;20213;-72
2023/01/06 05:40:02;;;;;;;11.27;9.70;;;1.70;99.90;;;;;;5035125;28;20677;-72
2023/01/06 05:42:29;;;;;;;12.37;10.30;;;1.80;99.90;;;;;;5033502;28;20205;-71
2023/01/06 05:44:56;;;;;;;13.00;9.90;;;1.70;99.90;;;;;;5034751;28;20210;-71
2023/01/06 05:47:22;;;;;;;13.90;10.97;;;1.80;99.90;;;;;;5034917;28;20245;-72
2023/01/06 05:49:50;;;;;;;13.43;11.33;;;1.70;99.90;;;;;;5034790;28;20205;-72
2023/01/06 05:59:54;;;;;;;22.23;14.90;;;1.80;99.90;;;;;;5034642;28;20185;-67
2023/01/06 06:36:04;;;;;;;13.00;10.40;;;1.60;99.90;;;;;;5034002;28;20624;-70
2023/01/06 06:39:08;;;;;;;13.57;10.53;;;1.60;99.90;;;;;;5033785;28;20194;-71
2023/01/06 06:41:35;;;;;;;8.93;7.53;;;1.60;99.90;;;;;;5032644;28;20221;-71
2023/01/06 06:44:02;;;;;;;9.67;7.90;;;1.60;99.90;;;;;;5030682;28;20226;-71
2023/01/06 06:46:29;;;;;;;9.27;7.87;;;1.50;99.90;;;;;;5033353;28;20241;-70
2023/01/06 06:48:56;;;;;;;9.27;7.37;;;1.50;99.90;;;;;;5033684;28;20206;-71
2023/01/06 06:51:24;;;;;;;9.53;7.60;;;1.50;99.90;;;;;;5032913;28;20209;-70
2023/01/06 06:53:51;;;;;;;9.70;8.10;;;1.40;99.90;;;;;;5032789;28;20208;-70
2023/01/06 06:56:19;;;;;;;9.97;8.37;;;1.30;99.90;;;;;;5033468;28;20220;-70
2023/01/06 06:58:47;;;;;;;9.93;8.50;;;1.20;99.90;;;;;;5033833;28;20206;-71
2023/01/06 07:01:15;;;;;;;9.57;8.57;;;1.20;99.90;;;;;;5032067;28;20241;-73
2023/01/06 07:03:42;;;;;;;9.57;8.57;;;1.20;99.90;;;;;;5033751;28;20206;-71
2023/01/06 07:06:12;;;;;;;10.33;9.07;;;1.20;99.90;;;;;;5033648;28;20202;-72
2023/01/06 07:08:42;;;;;;;12.00;9.23;;;1.20;99.90;;;;;;5033811;28;20209;-70
2023/01/06 07:11:09;;;;;;;10.50;8.27;;;1.20;99.90;;;;;;5032087;28;20700;-70
2023/01/06 07:13:36;;;;;;;8.63;7.37;;;1.10;99.90;;;;;;5033742;28;20240;-71
2023/01/06 07:16:02;;;;;;;8.97;7.80;;;1.10;99.90;;;;;;5033125;28;20311;-70
2023/01/06 07:18:29;;;;;;;7.97;6.87;;;1.10;99.90;;;;;;5033390;28;20233;-72
2023/01/06 07:20:56;;;;;;;10.47;7.40;;;1.10;99.90;;;;;;5032160;28;20221;-70
2023/01/06 07:23:23;;;;;;;8.80;6.37;;;1.00;99.90;;;;;;5033032;28;20581;-70
2023/01/06 07:25:56;;;;;;;6.20;5.60;;;1.00;99.90;;;;;;5030387;28;20206;-69
2023/01/06 07:28:23;;;;;;;13.07;6.00;;;0.90;99.90;;;;;;5032811;28;20216;-69
2023/01/06 07:37:28;;;;;;;8.80;7.80;;;0.90;99.90;;;;;;4989336;28;20261;-66
2023/01/06 07:47:15;;;;;;;9.00;7.70;;;0.80;99.90;;;;;;4990006;28;20371;-69
2023/01/06 07:49:43;;;;;;;10.57;9.20;;;0.80;99.90;;;;;;5006296;28;20222;-67
2023/01/06 07:52:10;;;;;;;11.00;9.90;;;0.80;99.90;;;;;;5012809;28;20655;-68
2023/01/06 07:54:36;;;;;;;11.30;10.00;;;0.80;99.90;;;;;;5012599;28;20202;-67
2023/01/06 07:57:18;;;;;;;11.13;9.93;;;0.80;99.90;;;;;;5012503;28;20198;-66
2023/01/06 12:19:48;;;;;;;8.87;5.63;;;-1.60;99.90;;;;;;5611897;22;20641;-70
2023/01/06 12:22:22;;;;;;;8.10;5.47;;;-1.60;99.90;;;;;;5050411;28;20225;-70
2023/01/06 12:24:51;;;;;;;7.47;5.70;;;-1.50;99.90;;;;;;5040660;28;20228;-70
2023/01/06 12:27:28;;;;;;;8.00;5.63;;;-1.40;99.90;;;;;;5048588;28;20205;-70
2023/01/06 12:30:00;;;;;;;6.40;5.70;;;-1.30;99.90;;;;;;5048778;28;20186;-70
2023/01/06 12:32:35;;;;;;;5.63;5.03;;;-1.20;99.90;;;;;;5029098;28;20217;-70
2023/01/06 12:35:05;;;;;;;6.97;5.33;;;-1.20;99.90;;;;;;5038293;28;20208;-71
2023/01/06 12:37:38;;;;;;;5.30;4.50;;;-1.20;99.90;;;;;;5033240;28;20308;-68
2023/01/06 12:40:12;;;;;;;5.70;5.07;;;-1.20;99.90;;;;;;5044069;28;20205;-69
2023/01/06 12:42:46;;;;;;;6.90;5.50;;;-1.20;99.90;;;;;;5047986;28;20208;-71
2023/01/06 12:45:17;;;;;;;7.50;5.37;;;-1.20;99.90;;;;;;5046738;28;20558;-68
2023/01/06 12:47:49;;;;;;;9.20;6.07;;;-1.20;99.90;;;;;;5028765;28;20191;-69
2023/01/06 12:50:23;;;;;;;9.80;7.10;;;-1.30;99.90;;;;;;5042611;28;20198;-70
2023/01/06 12:52:53;;;;;;;12.23;7.80;;;-1.40;99.90;;;;;;5035218;28;20661;-70
2023/01/06 12:55:35;;;;;;;9.50;7.00;;;-1.40;99.90;;;;;;5042286;28;20213;-70
2023/01/06 12:58:07;;;;;;;7.83;6.30;;;-1.40;99.90;;;;;;5046401;28;20296;-70
2023/01/06 13:00:47;;;;;;;12.33;7.33;;;-1.50;99.90;;;;;;5028338;28;20206;-70
2023/01/06 13:03:44;;;;;;;11.83;7.87;;;-1.60;99.90;;;;;;5047745;28;20198;-70
2023/01/06 13:06:31;;;;;;;9.53;7.43;;;-1.60;99.90;;;;;;5046989;28;20685;-70
2023/01/06 13:09:17;;;;;;;11.10;7.13;;;-1.70;99.90;;;;;;5048313;28;20225;-71
2023/01/06 13:12:05;;;;;;;11.13;7.93;;;-1.70;99.90;;;;;;5048250;28;20185;-70
2023/01/06 13:14:41;;;;;;;12.93;8.10;;;-1.60;99.90;;;;;;5049010;28;20206;-71
2023/01/06 13:17:15;;;;;;;8.73;6.40;;;-1.70;99.90;;;;;;5048752;28;20233;-70
2023/01/06 13:19:49;;;;;;;12.70;7.30;;;-1.80;99.90;;;;;;5048137;28;20233;-70
2023/01/06 13:22:21;;;;;;;9.73;6.63;;;-1.80;99.90;;;;;;5048337;28;20198;-71
2023/01/06 13:25:02;;;;;;;9.83;6.50;;;-1.80;99.90;;;;;;5048817;28;20194;-71
2023/01/06 13:27:52;;;;;;;11.03;7.07;;;-1.90;99.90;;;;;;5048638;28;20285;-70
2023/01/06 13:31:13;;;;;;;9.33;6.60;;;-1.90;99.90;;;;;;5039255;28;20256;-70
2023/01/06 13:34:09;;;;;;;12.23;9.03;;;-1.90;99.90;;;;;;4999160;28;20546;-73
2023/01/06 13:37:11;;;;;;;10.83;8.60;;;-1.80;99.90;;;;;;5034858;28;20207;-71
2023/01/06 13:39:42;;;;;;;6.53;5.83;;;-1.80;99.90;;;;;;5019307;28;20232;-71
2023/01/06 13:42:15;;;;;;;7.33;6.63;;;-1.90;99.90;;;;;;5034606;28;20654;-72
2023/01/06 13:44:44;;;;;;;7.23;6.53;;;-1.90;99.90;;;;;;5034963;28;20195;-72
2023/01/06 13:47:15;;;;;;;8.70;6.77;;;-1.90;99.90;;;;;;5034875;28;20674;-72
2023/01/06 13:49:42;;;;;;;7.17;6.27;;;-2.00;99.90;;;;;;5034570;28;20194;-71
2023/01/06 13:52:17;;;;;;;7.77;6.90;;;-2.10;99.90;;;;;;5034762;28;20224;-73
2023/01/06 13:55:27;;;;;;;8.70;7.47;;;-2.10;99.90;;;;;;5034906;28;20213;-71
2023/01/06 13:57:54;;;;;;;8.60;7.47;;;-2.00;99.90;;;;;;5034353;28;20269;-71
2023/01/06 14:00:25;;;;;;;7.43;6.27;;;-2.00;99.90;;;;;;5034175;28;20213;-74
2023/01/06 14:03:17;;;;;;;7.67;6.50;;;-2.10;99.90;;;;;;5034963;28;20190;-70
2023/01/06 14:05:55;;;;;;;7.80;6.23;;;-2.10;99.90;;;;;;5034430;28;20202;-71
2023/01/06 14:08:25;;;;;;;7.13;6.37;;;-2.20;99.90;;;;;;5034475;28;20205;-70
2023/01/06 14:10:59;;;;;;;6.97;6.00;;;-2.20;99.90;;;;;;5034388;28;20679;-71
2023/01/06 14:13:29;;;;;;;7.60;6.47;;;-2.20;99.90;;;;;;5033758;28;20272;-72
2023/01/06 14:15:58;;;;;;;8.43;6.67;;;-2.20;99.90;;;;;;5033537;28;20230;-71
2023/01/06 14:18:41;;;;;;;8.10;6.60;;;-2.30;99.90;;;;;;5034341;28;20324;-71
2023/01/06 14:21:19;;;;;;;9.80;7.23;;;-2.30;99.90;;;;;;5033321;28;20575;-71
2023/01/06 14:24:00;;;;;;;8.33;6.50;;;-2.20;99.90;;;;;;5033482;28;20190;-71
2023/01/06 14:26:59;;;;;;;9.40;6.67;;;-2.10;99.90;;;;;;5034042;28;20225;-71
2023/01/06 14:30:04;;;;;;;7.13;5.67;;;-2.10;99.90;;;;;;5000831;28;20209;-72
2023/01/06 14:33:11;;;;;;;7.30;5.83;;;-2.20;99.90;;;;;;5024862;28;20687;-71
2023/01/06 14:35:42;;;;;;;7.07;6.27;;;-2.20;99.90;;;;;;5034089;28;20194;-74
2023/01/06 14:38:24;;;;;;;7.40;6.00;;;-2.30;99.90;;;;;;5034073;28;20194;-74
2023/01/06 14:40:56;;;;;;;7.37;5.83;;;-2.30;99.90;;;;;;5033019;28;20191;-74
2023/01/06 14:43:41;;;;;;;6.77;5.90;;;-2.30;99.90;;;;;;5033473;28;20190;-75
2023/01/06 14:46:16;;;;;;;7.40;5.93;;;-2.30;99.90;;;;;;5033643;28;20301;-75
2023/01/06 14:48:48;;;;;;;8.43;6.43;;;-2.40;99.90;;;;;;5033417;28;20185;-74
2023/01/06 14:51:18;;;;;;;7.00;6.30;;;-2.40;99.90;;;;;;5033898;28;20191;-75
2023/01/06 14:53:58;;;;;;;7.10;5.80;;;-2.30;99.90;;;;;;5033941;28;20194;-75
2023/01/06 14:56:27;;;;;;;6.57;5.40;;;-2.30;99.90;;;;;;5033643;28;20197;-75
2023/01/06 14:59:05;;;;;;;8.93;5.77;;;-2.30;99.90;;;;;;5033553;28;20230;-75
2023/01/06 15:01:34;;;;;;;8.43;5.63;;;-2.40;99.90;;;;;;5034140;28;20209;-74
2023/01/06 15:04:03;;;;;;;8.37;6.00;;;-2.40;99.90;;;;;;5033554;28;20288;-74
2023/01/06 15:06:30;;;;;;;7.07;5.90;;;-2.40;99.90;;;;;;5033916;28;20225;-75
2023/01/06 15:09:11;;;;;;;8.20;6.17;;;-2.50;99.90;;;;;;5033527;28;20296;-74
2023/01/06 15:11:41;;;;;;;6.70;5.17;;;-2.50;99.90;;;;;;5033457;28;20550;-74
2023/01/06 15:17:04;;;;;;;6.70;5.20;;;-2.50;99.90;;;;;;5152169;27;21056;-74
2023/01/06 15:19:31;;;;;;;5.00;4.40;;;-2.50;99.90;;;;;;5151702;27;20276;-74
2023/01/06 15:21:59;;;;;;;4.87;4.37;;;-2.50;99.90;;;;;;5151561;27;20289;-74
2023/01/06 15:24:29;;;;;;;5.07;4.57;;;-2.60;99.90;;;;;;5151469;27;20213;-74
2023/01/06 15:27:04;;;;;;;4.77;4.00;;;-2.60;99.90;;;;;;5151430;27;20547;-73
2023/01/06 15:29:30;;;;;;;4.57;3.73;;;-2.60;99.90;;;;;;5151643;27;20210;-74
2023/01/06 15:31:57;;;;;;;3.73;3.43;;;-2.60;99.90;;;;;;5151077;27;20206;-74
2023/01/06 15:34:32;;;;;;;6.80;3.70;;;-2.60;99.90;;;;;;5151563;27;20208;-75
2023/01/06 15:37:02;;;;;;;4.67;3.87;;;-2.70;99.90;;;;;;5151201;27;20661;-74
2023/01/06 15:39:31;;;;;;;4.30;3.73;;;-2.70;99.90;;;;;;5151148;27;20568;-74
2023/01/06 15:41:59;;;;;;;5.53;3.90;;;-2.80;99.90;;;;;;5150673;27;20208;-75
2023/01/06 15:44:28;;;;;;;4.60;4.00;;;-2.80;99.90;;;;;;5151307;27;20229;-74
2023/01/06 15:47:01;;;;;;;7.33;4.20;;;-2.80;99.90;;;;;;5150578;27;20194;-75
2023/01/06 15:49:32;;;;;;;4.90;4.30;;;-2.70;99.90;;;;;;5150772;27;20635;-75
2023/01/06 15:52:03;;;;;;;5.17;4.00;;;-2.70;99.90;;;;;;5150859;27;20534;-73
2023/01/06 15:54:31;;;;;;;5.27;3.90;;;-2.70;99.90;;;;;;5152180;27;20198;-73
2023/01/06 15:56:59;;;;;;;3.97;3.57;;;-2.70;99.90;;;;;;5150903;27;20234;-75
2023/01/06 15:59:27;;;;;;;4.83;3.77;;;-2.70;99.90;;;;;;5151208;27;20208;-73
2023/01/06 20:28:41;;;;;;;9.23;6.23;;;-5.00;99.90;;;;;;6075301;22;1426614;-65
2023/01/06 20:31:18;;;;;;;7.73;6.10;;;-4.30;99.90;;;;;;6133158;23;20163;-66
2023/01/06 20:33:47;;;;;;;9.40;6.20;;;-4.30;99.90;;;;;;6133046;23;20202;-68
2023/01/06 20:36:16;;;;;;;7.73;6.10;;;-4.20;99.90;;;;;;6131893;23;20190;-65
2023/01/06 20:38:43;;;;;;;7.50;5.60;;;-4.20;99.90;;;;;;6132867;23;20629;-69
2023/01/06 20:41:14;;;;;;;8.30;5.73;;;-4.20;99.90;;;;;;6133140;23;20193;-67
2023/01/06 20:43:42;;;;;;;9.47;6.60;;;-4.10;99.90;;;;;;6132243;23;20171;-70
2023/01/06 20:46:09;;;;;;;8.87;6.97;;;-4.10;99.90;;;;;;6133181;23;20214;-69
2023/01/06 20:48:38;;;;;;;12.20;7.17;;;-4.10;99.90;;;;;;6134659;23;20506;-68
2023/01/06 20:51:08;;;;;;;10.43;6.73;;;-4.00;99.90;;;;;;6133354;23;20183;-69
2023/01/06 20:53:41;;;;;;;9.47;6.27;;;-4.00;99.90;;;;;;6133104;23;20174;-65
2023/01/06 20:56:08;;;;;;;8.43;6.47;;;-4.10;99.90;;;;;;6133306;23;20163;-67
2023/01/06 20:58:35;;;;;;;9.77;6.67;;;-4.20;99.90;;;;;;6133857;23;20702;-68
2023/01/06 21:01:09;;;;;;;9.83;6.53;;;-4.20;99.90;;;;;;6132650;23;20189;-66
2023/01/06 21:03:35;;;;;;;8.33;6.33;;;-4.20;99.90;;;;;;6133115;23;20168;-68
2023/01/06 21:06:02;;;;;;;7.80;6.10;;;-4.30;99.90;;;;;;6132972;23;20251;-66
2023/01/06 21:08:29;;;;;;;8.47;6.20;;;-4.30;99.90;;;;;;6132845;23;20179;-67
2023/01/06 21:10:56;;;;;;;9.07;6.07;;;-4.30;99.90;;;;;;6133634;23;20179;-66
2023/01/06 21:13:23;;;;;;;8.57;6.13;;;-4.30;99.90;;;;;;6133249;23;20210;-68
2023/01/06 21:15:55;;;;;;;7.47;5.77;;;-4.30;99.90;;;;;;6133498;23;20175;-66
2023/01/06 21:18:23;;;;;;;8.70;6.23;;;-4.40;99.90;;;;;;6133661;23;20185;-69
2023/01/06 21:20:50;;;;;;;9.03;6.47;;;-4.40;99.90;;;;;;6132919;23;20210;-70
2023/01/06 21:23:17;;;;;;;9.57;5.93;;;-4.40;99.90;;;;;;6133033;23;20178;-68
2023/01/06 21:25:44;;;;;;;9.07;6.30;;;-4.30;99.90;;;;;;6133500;23;20179;-68
2023/01/06 21:28:10;;;;;;;8.27;5.90;;;-4.30;99.90;;;;;;6129952;23;20267;-68
2023/01/06 21:30:48;;;;;;;8.53;5.63;;;-4.40;99.90;;;;;;6127245;23;20179;-69
2023/01/06 21:33:15;;;;;;;8.57;5.83;;;-4.40;99.90;;;;;;6125830;23;20237;-71
2023/01/06 21:35:43;;;;;;;9.23;6.50;;;-4.50;99.90;;;;;;6125634;23;20655;-69
2023/01/06 21:38:14;;;;;;;8.07;6.13;;;-4.50;99.90;;;;;;6125995;23;20641;-65
2023/01/06 21:43:07;;;;;;;7.27;5.80;;;-4.40;99.90;;;;;;6126285;23;20175;-67
2023/01/06 21:43:49;;;;;;;8.60;6.07;;;-4.50;99.90;;;;;;6126093;23;20211;-66
2023/01/06 21:46:16;;;;;;;7.87;5.70;;;-4.40;99.90;;;;;;6126494;23;20203;-66
2023/01/06 21:48:42;;;;;;;7.33;5.70;;;-4.40;99.90;;;;;;6126749;23;20168;-67
2023/01/06 21:51:11;;;;;;;7.23;5.90;;;-4.50;99.90;;;;;;6125780;23;20179;-70
2023/01/06 21:53:38;;;;;;;8.07;5.90;;;-4.40;99.90;;;;;;6125457;23;20170;-65
2023/01/06 21:56:09;;;;;;;7.43;5.13;;;-4.40;99.90;;;;;;6126142;23;20180;-66
2023/01/06 21:58:36;;;;;;;5.30;4.63;;;-4.50;99.90;;;;;;6126763;23;20171;-70
2023/01/06 22:01:03;;;;;;;6.10;4.83;;;-4.50;99.90;;;;;;6126593;23;20206;-69
2023/01/06 22:03:29;;;;;;;5.33;4.83;;;-4.50;99.90;;;;;;6126634;23;20201;-70
2023/01/06 22:05:57;;;;;;;6.97;5.27;;;-4.50;99.90;;;;;;6126673;23;20186;-69
2023/01/06 22:08:25;;;;;;;8.03;5.03;;;-4.50;99.90;;;;;;6125741;23;20657;-72
2023/01/06 22:10:52;;;;;;;7.63;5.23;;;-4.50;99.90;;;;;;6126593;23;20168;-69
2023/01/06 22:13:21;;;;;;;6.77;5.40;;;-4.50;99.90;;;;;;6125744;23;20186;-69
2023/01/06 22:15:48;;;;;;;8.70;6.43;;;-4.40;99.90;;;;;;6125603;23;20164;-69
2023/01/06 22:18:16;;;;;;;10.40;7.17;;;-4.40;99.90;;;;;;6125680;23;20694;-69
2023/01/06 22:20:43;;;;;;;8.57;6.50;;;-4.40;99.90;;;;;;6125237;23;20474;-70
2023/01/06 22:23:13;;;;;;;9.23;6.57;;;-4.50;99.90;;;;;;6125072;23;20874;-68
2023/01/06 22:25:42;;;;;;;8.77;6.60;;;-4.50;99.90;;;;;;6125006;23;20163;-70
2023/01/06 22:28:24;;;;;;;9.77;7.30;;;-4.50;99.90;;;;;;6123029;23;20523;-68
2023/01/06 22:31:06;;;;;;;9.53;6.60;;;-4.50;99.90;;;;;;6124855;23;20163;-70
2023/01/06 22:33:33;;;;;;;11.23;7.40;;;-4.60;99.90;;;;;;6125008;23;20167;-68
2023/01/06 22:36:00;;;;;;;12.17;7.60;;;-4.50;99.90;;;;;;6124466;23;20183;-69
2023/01/06 22:38:27;;;;;;;13.63;8.73;;;-4.60;99.90;;;;;;6124458;23;20166;-68
2023/01/06 22:40:55;;;;;;;12.17;8.00;;;-4.60;99.90;;;;;;6122133;23;20164;-67
2023/01/06 22:43:22;;;;;;;11.80;8.13;;;-4.60;99.90;;;;;;6124816;23;20168;-69
2023/01/06 22:45:52;;;;;;;12.07;7.97;;;-4.70;99.90;;;;;;6124622;23;20164;-69
2023/01/06 22:48:19;;;;;;;12.03;8.27;;;-4.70;99.90;;;;;;6122484;23;20210;-70
2023/01/06 22:50:46;;;;;;;12.30;8.13;;;-4.70;99.90;;;;;;6125613;23;20163;-67
2023/01/06 22:53:12;;;;;;;14.03;9.23;;;-4.70;99.90;;;;;;6125274;23;20180;-69
2023/01/06 22:55:39;;;;;;;13.20;8.50;;;-4.80;99.90;;;;;;6125410;23;20180;-68
2023/01/06 22:58:07;;;;;;;12.63;8.23;;;-4.80;99.90;;;;;;6125614;23;20182;-68
2023/01/06 23:00:34;;;;;;;12.30;8.10;;;-4.80;99.90;;;;;;6124219;23;20753;-70
2023/01/06 23:03:01;;;;;;;12.87;7.90;;;-4.80;99.90;;;;;;6124362;23;20223;-67
2023/01/06 23:05:28;;;;;;;10.70;7.73;;;-4.80;99.90;;;;;;6125031;23;20642;-69
2023/01/06 23:07:55;;;;;;;11.53;8.27;;;-4.80;99.90;;;;;;6124996;23;20492;-67
2023/01/06 23:10:21;;;;;;;11.97;8.23;;;-4.70;99.90;;;;;;6125522;23;20593;-68
2023/01/06 23:12:48;;;;;;;12.13;8.30;;;-4.80;99.90;;;;;;6124605;23;20518;-67
2023/01/06 23:15:16;;;;;;;12.10;8.30;;;-4.80;99.90;;;;;;6124793;23;20499;-67
2023/01/06 23:17:44;;;;;;;13.30;8.67;;;-4.80;99.90;;;;;;6124409;23;20622;-68
2023/01/06 23:20:11;;;;;;;12.70;8.43;;;-4.70;99.90;;;;;;6124147;23;20503;-69
2023/01/06 23:22:38;;;;;;;13.27;9.00;;;-4.70;99.90;;;;;;6123202;23;20186;-69
2023/01/06 23:25:06;;;;;;;13.13;8.67;;;-4.80;99.90;;;;;;6124017;23;20250;-68
2023/01/06 23:27:33;;;;;;;13.33;8.80;;;-4.80;99.90;;;;;;6123655;23;20211;-67
2023/01/06 23:30:17;;;;;;;14.07;9.33;;;-4.80;99.90;;;;;;6124156;23;20186;-68
2023/01/06 23:32:45;;;;;;;13.80;9.03;;;-4.70;99.90;;;;;;6123978;23;20168;-68
2023/01/06 23:35:12;;;;;;;13.90;9.43;;;-4.70;99.90;;;;;;6124720;23;20178;-67
2023/01/06 23:37:39;;;;;;;14.77;8.87;;;-4.70;99.90;;;;;;6124837;23;20503;-68
2023/01/06 23:40:07;;;;;;;12.03;8.07;;;-4.70;99.90;;;;;;6125090;23;20170;-69
2023/01/06 23:42:35;;;;;;;14.57;9.20;;;-4.70;99.90;;;;;;6125374;23;20180;-68
2023/01/06 23:45:02;;;;;;;14.97;8.90;;;-4.80;99.90;;;;;;6125411;23;20184;-70
2023/01/06 23:47:28;;;;;;;14.37;9.50;;;-4.80;99.90;;;;;;6124570;23;20282;-68
2023/01/06 23:49:57;;;;;;;12.97;9.07;;;-4.80;99.90;;;;;;6124860;23;20186;-68
2023/01/06 23:52:23;;;;;;;13.03;8.67;;;-4.90;99.90;;;;;;6124440;23;20183;-68
2023/01/06 23:54:50;;;;;;;13.83;8.50;;;-4.90;99.90;;;;;;6124670;23;20190;-68
2023/01/06 23:57:17;;;;;;;13.43;9.30;;;-4.90;99.90;;;;;;6124968;23;20175;-68
2023/01/06 23:59:44;;;;;;;13.90;9.80;;;-4.90;99.90;;;;;;6124121;23;20179;-69
